SWHP weather

Olhos D`água Airport
Água Boa, Mato Grosso, Brazil

Public forecast

Using degrees Celsius for public forecast. Weather courtesy of forecast.io.

Closest aviation weather report (METAR) to Olhos D`água Airport

Closest report is Barra do Garças Airport, 111.4 nm (206.4 km) S. Retrieved 2020/06/02 12:00 UTC (2 hours ago):

SBBW 021200Z 00000KT CAVOK 19/16 Q1019

Closest aviation forecast (TAF) to Olhos D`água Airport

Closest forecast is Barra do Garças Airport, 111.4 nm (206.4 km) S. Retrieved 2020/06/02 12:42 UTC (1 hour ago):

TAF SBBW 020900Z 0212/0224 09002KT CAVOK TN19/0212Z TX29/0218Z RMK PEU